createdAt,value
2023-03-11T00:04:22.998Z,3.97
2023-03-11T00:09:25.776Z,3.33
2023-03-11T00:14:28.937Z,4.15
2023-03-11T00:19:33.614Z,4.14
2023-03-11T00:24:42.786Z,4.14
2023-03-11T00:29:45.548Z,4.13
2023-03-11T00:35:00.029Z,3.69
2023-03-11T00:40:04.349Z,4.14
2023-03-11T00:45:08.273Z,4.14
2023-03-11T00:50:17.761Z,3.90
2023-03-11T00:55:22.784Z,4.10
2023-03-11T01:00:33.476Z,4.22
2023-03-11T01:05:39.944Z,4.20
2023-03-11T01:10:44.894Z,4.25
2023-03-11T01:15:49.066Z,4.28
2023-03-11T01:20:54.145Z,4.07
2023-03-11T01:25:56.873Z,3.71
2023-03-11T01:31:02.006Z,4.21
2023-03-11T01:36:10.166Z,3.97
2023-03-11T01:41:13.464Z,4.10
2023-03-11T01:46:19.207Z,4.09
2023-03-11T01:51:29.671Z,4.00
2023-03-11T01:56:33.730Z,4.02
2023-03-11T02:01:40.779Z,4.06
2023-03-11T02:06:45.534Z,4.08
2023-03-11T02:11:49.313Z,3.18
2023-03-11T02:16:52.751Z,4.01
2023-03-11T02:21:57.513Z,3.74
2023-03-11T02:27:04.015Z,3.78
2023-03-11T02:32:08.959Z,3.40
2023-03-11T02:37:18.377Z,3.78
2023-03-11T02:42:31.341Z,3.29
2023-03-11T02:47:36.319Z,2.90
2023-03-11T02:52:39.489Z,3.71
2023-03-11T02:57:46.628Z,3.76
2023-03-11T03:02:58.049Z,3.44
2023-03-11T03:08:02.728Z,3.39
2023-03-11T03:13:06.963Z,3.70
2023-03-11T03:18:09.987Z,3.46
2023-03-11T03:23:13.302Z,3.02
2023-03-11T03:28:19.158Z,3.70
2023-03-11T03:33:23.321Z,3.41
2023-03-11T03:38:26.122Z,3.43
2023-03-11T03:43:32.445Z,3.37
2023-03-11T03:48:35.553Z,3.39
2023-03-11T03:53:41.889Z,3.40
2023-03-11T03:58:46.358Z,2.93
2023-03-11T04:03:49.349Z,3.29
2023-03-11T04:08:53.387Z,3.56
2023-03-11T04:14:02.378Z,3.17
2023-03-11T04:19:06.647Z,2.55
2023-03-11T04:24:11.740Z,3.22
2023-03-11T04:29:19.670Z,3.22
2023-03-11T04:34:26.067Z,2.45
2023-03-11T04:39:29.255Z,3.01
2023-03-11T04:44:35.980Z,2.72
2023-03-11T04:49:41.743Z,0.16
2023-03-11T04:54:44.949Z,2.85
2023-03-11T04:59:49.313Z,2.86
2023-03-11T05:04:52.695Z,3.22
2023-03-11T05:09:55.970Z,3.04
2023-03-11T05:15:01.564Z,2.59
2023-03-11T05:20:07.878Z,3.01
2023-03-11T05:25:11.275Z,3.15
2023-03-11T05:30:16.310Z,3.08
2023-03-11T05:35:21.504Z,3.06
2023-03-11T05:40:26.720Z,3.06
2023-03-11T05:45:30.867Z,2.96
2023-03-11T05:50:35.983Z,3.03
2023-03-11T05:55:39.415Z,2.99
2023-03-11T06:00:43.967Z,2.89
2023-03-11T06:05:47.393Z,2.79
2023-03-11T06:10:50.306Z,2.93
2023-03-11T06:15:57.027Z,2.45
2023-03-11T06:21:02.370Z,2.17
2023-03-11T06:26:07.579Z,2.43
2023-03-11T06:31:19.319Z,2.25
2023-03-11T06:36:23.385Z,2.19
2023-03-11T06:41:27.156Z,2.74
2023-03-11T06:46:32.135Z,2.81
2023-03-11T06:51:37.268Z,2.75
2023-03-11T06:56:46.468Z,2.63
2023-03-11T07:01:51.754Z,2.81
2023-03-11T07:06:58.700Z,2.85
2023-03-11T07:12:02.028Z,2.97
2023-03-11T07:17:11.194Z,3.20
2023-03-11T07:22:20.945Z,3.18
2023-03-11T07:27:23.699Z,3.47
2023-03-11T07:32:30.880Z,3.26
2023-03-11T07:37:33.574Z,3.65
2023-03-11T07:42:36.228Z,3.44
2023-03-11T07:47:40.880Z,3.79
2023-03-11T07:52:44.006Z,3.80
2023-03-11T07:57:49.019Z,4.14
2023-03-11T08:02:53.429Z,4.12
2023-03-11T08:07:56.508Z,3.71
2023-03-11T08:13:02.314Z,4.46
2023-03-11T08:18:06.907Z,4.46
2023-03-11T08:23:12.337Z,3.91
2023-03-11T08:28:15.094Z,4.56
2023-03-11T08:33:22.271Z,4.54
2023-03-11T08:38:25.255Z,4.34
2023-03-11T08:43:29.109Z,4.19
2023-03-11T08:48:34.048Z,4.60
2023-03-11T08:53:37.603Z,4.65
2023-03-11T08:58:42.951Z,4.92
2023-03-11T09:03:47.733Z,4.90
2023-03-11T09:08:50.628Z,4.94
2023-03-11T09:13:53.626Z,4.79
2023-03-11T09:19:00.238Z,4.95
2023-03-11T09:24:04.214Z,4.47
2023-03-11T09:29:09.935Z,4.65
2023-03-11T09:34:16.124Z,5.08
2023-03-11T09:39:18.956Z,5.11
2023-03-11T09:44:28.340Z,5.37
2023-03-11T09:49:44.034Z,5.44
2023-03-11T09:54:49.795Z,5.42
2023-03-11T09:59:53.479Z,5.71
2023-03-11T10:05:02.601Z,5.79
2023-03-11T10:10:13.267Z,5.40
2023-03-11T10:15:25.389Z,5.81
2023-03-11T10:20:37.762Z,5.98
2023-03-11T10:25:54.658Z,5.96
2023-03-11T10:31:02.424Z,6.12
2023-03-11T10:36:12.073Z,4.11
2023-03-11T10:41:21.583Z,5.07
2023-03-11T10:46:27.484Z,5.81
2023-03-11T10:51:36.409Z,5.74
2023-03-11T10:56:41.611Z,5.47
2023-03-11T11:01:55.663Z,5.70
2023-03-11T11:07:00.702Z,5.82
2023-03-11T11:12:06.154Z,6.36
2023-03-11T11:17:18.916Z,5.94
2023-03-11T11:22:25.020Z,6.37
2023-03-11T11:27:30.801Z,6.06
2023-03-11T11:32:37.144Z,6.61
2023-03-11T11:37:46.206Z,7.11
2023-03-11T11:42:56.409Z,7.24
2023-03-11T11:48:07.763Z,7.37
2023-03-11T11:53:25.257Z,7.60
2023-03-11T11:58:28.542Z,7.38
2023-03-11T12:03:45.777Z,6.78
2023-03-11T12:09:00.498Z,6.65
2023-03-11T12:14:07.062Z,7.22
2023-03-11T12:19:24.562Z,6.59
2023-03-11T12:24:50.998Z,6.92
2023-03-11T12:29:57.165Z,7.16
2023-03-11T12:35:13.357Z,7.33
2023-03-11T12:40:49.092Z,5.68
2023-03-11T12:45:53.217Z,7.18
2023-03-11T12:50:56.564Z,8.54
2023-03-11T12:56:12.391Z,8.14
2023-03-11T13:01:38.693Z,8.71
2023-03-11T13:07:07.318Z,8.79
2023-03-11T13:12:41.523Z,8.46
2023-03-11T13:17:57.106Z,8.87
2023-03-11T13:23:21.119Z,8.97
2023-03-11T13:28:52.983Z,9.11
2023-03-11T13:33:57.441Z,8.17
2023-03-11T13:39:26.869Z,8.61
2023-03-11T13:44:38.147Z,10.19
2023-03-11T13:49:46.373Z,9.66
2023-03-11T13:55:04.863Z,10.09
2023-03-11T14:00:17.860Z,10.43
2023-03-11T14:05:51.221Z,8.82
2023-03-11T14:11:00.172Z,6.78
2023-03-11T14:16:17.905Z,8.90
2023-03-11T14:21:31.293Z,8.32
2023-03-11T14:26:37.887Z,9.66
2023-03-11T14:31:56.563Z,7.06
2023-03-11T14:37:03.488Z,10.14
2023-03-11T14:42:14.174Z,10.29
2023-03-11T14:47:46.763Z,8.80
2023-03-11T14:53:13.944Z,9.41
2023-03-11T14:59:12.529Z,9.88
2023-03-11T15:04:38.121Z,8.79
2023-03-11T15:09:55.254Z,8.41
2023-03-11T15:15:02.706Z,6.88
2023-03-11T15:20:46.407Z,5.98
2023-03-11T15:26:27.448Z,5.60
2023-03-11T15:31:53.571Z,5.99
2023-03-11T15:37:18.264Z,8.75
2023-03-11T15:42:27.049Z,8.55
2023-03-11T15:47:32.047Z,7.39
2023-03-11T15:52:37.672Z,7.92
2023-03-11T15:57:42.392Z,7.39
2023-03-11T16:02:46.835Z,7.06
2023-03-11T16:07:54.684Z,8.05
2023-03-11T16:13:04.580Z,8.17
2023-03-11T16:18:09.084Z,7.85
2023-03-11T16:23:20.364Z,6.49
2023-03-11T16:28:26.996Z,7.99
2023-03-11T16:33:29.955Z,7.90
2023-03-11T16:38:34.369Z,6.32
2023-03-11T16:43:42.046Z,6.46
2023-03-11T16:48:44.775Z,6.13
2023-03-11T16:53:47.942Z,6.40
2023-03-11T16:58:52.234Z,7.45
2023-03-11T17:03:55.177Z,7.54
2023-03-11T17:09:00.821Z,7.28
2023-03-11T17:14:15.808Z,6.98
2023-03-11T17:19:19.708Z,6.59
2023-03-11T17:24:22.589Z,7.03
2023-03-11T17:29:27.443Z,5.37
2023-03-11T17:34:30.161Z,5.59
2023-03-11T17:39:33.841Z,6.53
2023-03-11T17:44:51.043Z,3.62
2023-03-11T17:49:55.135Z,6.55
2023-03-11T17:54:58.651Z,6.50
2023-03-11T18:00:14.209Z,5.82
2023-03-11T18:05:18.753Z,4.61
2023-03-11T18:10:29.505Z,3.00
2023-03-11T18:15:36.251Z,5.32
2023-03-11T18:20:39.338Z,5.67
2023-03-11T18:25:45.235Z,5.81
2023-03-11T18:31:09.138Z,4.20
2023-03-11T18:36:14.000Z,3.82
2023-03-11T18:41:17.472Z,5.44
2023-03-11T18:46:26.370Z,3.83
2023-03-11T18:51:35.557Z,5.32
2023-03-11T18:56:41.828Z,1.80
2023-03-11T19:01:51.983Z,4.10
2023-03-11T19:06:55.500Z,4.95
2023-03-11T19:11:59.748Z,3.03
2023-03-11T19:17:05.853Z,2.40
2023-03-11T19:22:11.391Z,4.06
2023-03-11T19:27:15.027Z,1.65
2023-03-11T19:32:22.022Z,3.30
2023-03-11T19:37:25.385Z,4.06
2023-03-11T19:42:28.605Z,4.43
2023-03-11T19:47:36.211Z,1.38
2023-03-11T19:52:39.771Z,4.81
2023-03-11T19:58:01.859Z,3.53
2023-03-11T20:03:08.050Z,1.96
2023-03-11T20:08:14.195Z,4.43
2023-03-11T20:13:20.317Z,4.61
2023-03-11T20:18:24.905Z,1.32
2023-03-11T20:23:32.852Z,3.65
2023-03-11T20:28:40.868Z,2.40
2023-03-11T20:33:45.509Z,1.83
2023-03-11T20:38:51.875Z,2.83
2023-03-11T20:43:57.775Z,4.68
2023-03-11T20:49:02.495Z,3.55
2023-03-11T20:54:12.889Z,4.56
2023-03-11T20:59:16.940Z,3.45
2023-03-11T21:04:24.397Z,4.27
2023-03-11T21:09:27.428Z,3.42
2023-03-11T21:14:30.647Z,3.15
2023-03-11T21:19:35.323Z,4.19
2023-03-11T21:24:38.194Z,4.37
2023-03-11T21:29:47.789Z,3.90
2023-03-11T21:34:52.302Z,4.40
2023-03-11T21:39:58.532Z,2.72
2023-03-11T21:45:05.362Z,4.28
2023-03-11T21:50:12.117Z,3.16
2023-03-11T21:55:21.743Z,4.27
2023-03-11T22:00:25.141Z,4.29
2023-03-11T22:05:29.672Z,2.87
2023-03-11T22:10:33.725Z,3.46
2023-03-11T22:15:38.204Z,3.76
2023-03-11T22:20:42.684Z,4.25
2023-03-11T22:25:45.914Z,3.77
2023-03-11T22:30:55.724Z,4.31
2023-03-11T22:36:03.827Z,3.41
2023-03-11T22:41:11.511Z,2.62
2023-03-11T22:46:14.434Z,2.52
2023-03-11T22:51:20.046Z,4.34
2023-03-11T22:56:24.276Z,3.56
2023-03-11T23:01:34.177Z,4.34
2023-03-11T23:06:39.715Z,4.43
2023-03-11T23:12:04.927Z,1.45
2023-03-11T23:17:10.509Z,1.80
2023-03-11T23:22:17.764Z,4.53
2023-03-11T23:27:27.064Z,1.89
2023-03-11T23:32:32.496Z,3.63
2023-03-11T23:37:38.449Z,1.96
2023-03-11T23:42:50.890Z,3.86
2023-03-11T23:47:57.886Z,4.64
2023-03-11T23:53:10.276Z,3.07
2023-03-11T23:58:13.844Z,4.16
